createdAt,value
2018-09-01T00:00:53.618Z,5.57
2018-09-01T00:05:56.831Z,5.10
2018-09-01T00:11:00.002Z,5.60
2018-09-01T00:16:03.170Z,5.10
2018-09-01T00:21:06.375Z,5.80
2018-09-01T00:26:09.543Z,5.60
2018-09-01T00:31:12.699Z,5.17
2018-09-01T00:36:15.874Z,5.10
2018-09-01T00:41:19.055Z,4.87
2018-09-01T00:46:22.232Z,5.70
2018-09-01T00:51:25.446Z,6.50
2018-09-01T00:56:28.643Z,6.33
2018-09-01T01:01:31.862Z,5.28
2018-09-01T01:06:35.089Z,6.03
2018-09-01T01:11:38.342Z,6.60
2018-09-01T01:16:41.563Z,8.50
2018-09-01T01:21:44.789Z,6.50
2018-09-01T01:26:51.889Z,6.35
2018-09-01T01:31:55.099Z,6.05
2018-09-01T01:36:58.338Z,5.75
2018-09-01T01:42:01.567Z,6.50
2018-09-01T01:47:04.828Z,6.07
2018-09-01T01:52:08.071Z,5.65
2018-09-01T01:57:11.313Z,5.70
2018-09-01T02:02:14.532Z,7.20
2018-09-01T02:07:17.757Z,6.90
2018-09-01T02:12:20.984Z,6.35
2018-09-01T02:17:24.227Z,6.20
2018-09-01T02:22:27.458Z,7.15
2018-09-01T02:27:30.670Z,6.00
2018-09-01T02:32:33.879Z,6.30
2018-09-01T02:37:37.224Z,7.30
2018-09-01T02:42:40.423Z,7.45
2018-09-01T02:47:43.628Z,6.62
2018-09-01T02:52:46.847Z,6.70
2018-09-01T02:57:50.050Z,6.92
2018-09-01T03:02:53.312Z,6.45
2018-09-01T03:07:56.567Z,6.05
2018-09-01T03:12:59.789Z,5.40
2018-09-01T03:18:03.021Z,5.47
2018-09-01T03:23:06.247Z,6.28
2018-09-01T03:28:09.474Z,4.67
2018-09-01T03:33:12.693Z,6.00
2018-09-01T03:38:15.891Z,5.62
2018-09-01T03:43:19.138Z,5.33
2018-09-01T03:48:22.365Z,5.92
2018-09-01T03:53:25.604Z,6.40
2018-09-01T03:58:28.835Z,5.20
2018-09-01T04:03:32.052Z,5.45
2018-09-01T04:08:35.251Z,6.60
2018-09-01T04:13:38.462Z,5.90
2018-09-01T04:18:41.699Z,5.45
2018-09-01T04:23:45.006Z,6.08
2018-09-01T04:28:48.199Z,7.30
2018-09-01T04:33:51.424Z,5.90
2018-09-01T04:38:54.635Z,9.07
2018-09-01T04:43:57.859Z,6.03
2018-09-01T04:49:01.248Z,5.90
2018-09-01T04:54:04.687Z,5.47
2018-09-01T04:59:07.863Z,5.28
2018-09-01T05:04:11.071Z,4.62
2018-09-01T05:09:14.321Z,5.83
2018-09-01T05:14:17.495Z,4.77
2018-09-01T05:19:20.692Z,4.15
2018-09-01T05:24:23.884Z,5.55
2018-09-01T05:29:27.082Z,4.70
2018-09-01T05:34:30.319Z,5.50
2018-09-01T05:39:33.543Z,4.47
2018-09-01T05:44:36.831Z,4.25
2018-09-01T05:49:40.225Z,4.05
2018-09-01T05:54:43.416Z,3.62
2018-09-01T05:59:46.601Z,2.87
2018-09-01T06:04:49.822Z,2.77
2018-09-01T06:09:53.044Z,3.00
2018-09-01T06:14:56.284Z,3.12
2018-09-01T06:19:59.472Z,3.10
2018-09-01T06:25:03.106Z,2.90
2018-09-01T06:30:08.187Z,2.80
2018-09-01T06:35:11.380Z,3.00
2018-09-01T06:40:14.616Z,3.00
2018-09-01T06:45:17.807Z,3.25
2018-09-01T06:50:20.996Z,3.03
2018-09-01T06:55:24.191Z,2.90
2018-09-01T07:00:27.429Z,2.83
2018-09-01T07:05:30.631Z,2.08
2018-09-01T07:10:33.820Z,2.30
2018-09-01T07:15:37.015Z,2.70
2018-09-01T07:20:40.215Z,2.80
2018-09-01T07:25:43.404Z,2.70
2018-09-01T07:30:47.002Z,2.58
2018-09-01T07:35:49.838Z,2.52
2018-09-01T07:40:53.062Z,2.40
2018-09-01T07:45:56.258Z,2.00
2018-09-01T07:50:59.612Z,2.23
2018-09-01T07:56:02.986Z,1.90
2018-09-01T08:01:06.604Z,1.60
2018-09-01T08:06:09.839Z,1.57
2018-09-01T08:11:13.055Z,1.60
2018-09-01T08:16:16.306Z,1.70
2018-09-01T08:21:19.512Z,1.30
2018-09-01T08:26:22.735Z,1.20
2018-09-01T08:31:25.954Z,1.25
2018-09-01T08:36:29.163Z,1.40
2018-09-01T08:41:32.398Z,1.40
2018-09-01T08:46:35.701Z,1.20
2018-09-01T08:51:38.979Z,1.20
2018-09-01T08:56:42.331Z,1.35
2018-09-01T09:01:45.476Z,0.93
2018-09-01T09:06:48.687Z,1.15
2018-09-01T09:11:51.903Z,1.10
2018-09-01T09:16:55.140Z,1.15
2018-09-01T09:21:58.355Z,0.85
2018-09-01T09:27:01.582Z,1.20
2018-09-01T09:32:04.843Z,1.17
2018-09-01T09:37:08.157Z,1.22
2018-09-01T09:42:11.393Z,1.10
2018-09-01T09:47:14.757Z,1.15
2018-09-01T09:52:18.083Z,1.20
2018-09-01T09:57:21.311Z,1.10
2018-09-01T10:02:24.544Z,1.07
2018-09-01T10:07:27.712Z,0.90
2018-09-01T10:12:30.903Z,1.17
2018-09-01T10:17:34.169Z,1.00
2018-09-01T10:22:37.394Z,1.30
2018-09-01T10:27:40.950Z,1.50
2018-09-01T10:32:44.189Z,1.22
2018-09-01T10:37:47.439Z,1.17
2018-09-01T10:42:50.963Z,0.97
2018-09-01T10:47:54.326Z,1.40
2018-09-01T10:52:57.806Z,1.17
2018-09-01T10:58:01.121Z,1.12
2018-09-01T11:03:04.393Z,1.30
2018-09-01T11:08:07.567Z,1.20
2018-09-01T11:13:11.129Z,1.10
2018-09-01T11:18:14.702Z,1.30
2018-09-01T11:23:18.326Z,1.07
2018-09-01T11:28:22.037Z,1.10
2018-09-01T11:33:25.448Z,1.30
2018-09-01T11:38:28.928Z,0.93
2018-09-01T11:43:32.389Z,1.27
2018-09-01T11:48:35.910Z,1.27
2018-09-01T11:53:39.152Z,1.07
2018-09-01T11:58:42.485Z,1.30
2018-09-01T12:03:45.806Z,1.15
2018-09-01T12:08:49.295Z,1.20
2018-09-01T12:13:52.474Z,1.10
2018-09-01T12:18:56.236Z,1.50
2018-09-01T12:24:00.260Z,1.30
2018-09-01T12:29:03.611Z,1.30
2018-09-01T12:34:07.068Z,1.27
2018-09-01T12:39:10.294Z,1.20
2018-09-01T12:44:14.346Z,1.10
2018-09-01T12:49:17.583Z,1.23
2018-09-01T12:54:20.830Z,1.40
2018-09-01T12:59:24.082Z,1.20
2018-09-01T13:04:27.308Z,1.30
2018-09-01T13:09:30.588Z,1.10
2018-09-01T13:14:34.115Z,1.30
2018-09-01T13:19:38.575Z,1.32
2018-09-01T13:24:41.795Z,1.20
2018-09-01T13:29:45.043Z,1.40
2018-09-01T13:34:48.380Z,1.30
2018-09-01T13:39:51.627Z,1.32
2018-09-01T13:44:54.900Z,1.20
2018-09-01T13:49:58.654Z,2.58
2018-09-01T13:55:01.914Z,1.42
2018-09-01T14:00:05.549Z,1.60
2018-09-01T14:05:08.901Z,1.12
2018-09-01T14:10:12.095Z,1.23
2018-09-01T14:15:15.373Z,1.20
2018-09-01T14:20:18.815Z,1.20
2018-09-01T14:25:22.012Z,1.20
2018-09-01T14:30:25.207Z,2.30
2018-09-01T14:35:28.520Z,1.30
2018-09-01T14:40:31.693Z,1.80
2018-09-01T14:45:34.897Z,1.37
2018-09-01T14:50:38.100Z,1.45
2018-09-01T14:55:41.299Z,2.17
2018-09-01T15:00:44.935Z,1.30
2018-09-01T15:05:48.124Z,1.52
2018-09-01T15:10:52.403Z,1.30
2018-09-01T15:15:55.606Z,1.40
2018-09-01T15:20:58.795Z,1.23
2018-09-01T15:26:01.992Z,1.32
2018-09-01T15:31:05.184Z,1.25
2018-09-01T15:36:08.436Z,2.80
2018-09-01T15:41:11.614Z,1.70
2018-09-01T15:46:14.824Z,1.60
2018-09-01T15:51:18.030Z,1.60
2018-09-01T15:56:22.201Z,2.10
2018-09-01T16:01:25.435Z,1.35
2018-09-01T16:06:28.635Z,1.60
2018-09-01T16:11:32.012Z,3.60
2018-09-01T16:16:35.349Z,1.40
2018-09-01T16:21:38.559Z,1.52
2018-09-01T16:26:42.071Z,1.42
2018-09-01T16:31:45.638Z,1.50
2018-09-01T16:36:49.392Z,1.20
2018-09-01T16:41:52.576Z,1.40
2018-09-01T16:46:56.954Z,1.52
2018-09-01T16:52:01.070Z,1.50
2018-09-01T16:57:04.556Z,1.42
2018-09-01T17:02:08.060Z,1.40
2018-09-01T17:07:11.347Z,1.72
2018-09-01T17:12:14.614Z,1.52
2018-09-01T17:17:17.828Z,1.63
2018-09-01T17:22:21.059Z,1.40
2018-09-01T17:27:24.377Z,1.87
2018-09-01T17:32:28.227Z,1.70
2018-09-01T17:37:31.485Z,1.70
2018-09-01T17:42:35.141Z,2.17
2018-09-01T17:47:38.391Z,1.95
2018-09-01T17:52:41.624Z,2.10
2018-09-01T17:57:45.104Z,2.30
2018-09-01T18:02:48.282Z,1.77
2018-09-01T18:07:51.479Z,2.83
2018-09-01T18:12:54.923Z,2.70
2018-09-01T18:17:58.288Z,2.12
2018-09-01T18:23:01.979Z,2.10
2018-09-01T18:28:05.103Z,2.05
2018-09-01T18:33:08.307Z,1.90
2018-09-01T18:38:11.515Z,1.90
2018-09-01T18:43:14.824Z,2.20
2018-09-01T18:48:18.214Z,2.40
2018-09-01T18:53:21.444Z,2.40
2018-09-01T18:58:24.692Z,3.27
2018-09-01T19:03:28.006Z,2.67
2018-09-01T19:08:31.440Z,3.22
2018-09-01T19:13:34.708Z,2.60
2018-09-01T19:18:38.145Z,2.33
2018-09-01T19:23:41.455Z,2.50
2018-09-01T19:28:44.711Z,2.05
2018-09-01T19:33:47.947Z,2.23
2018-09-01T19:38:51.718Z,2.02
2018-09-01T19:43:55.140Z,2.25
2018-09-01T19:48:58.638Z,2.40
2018-09-01T19:54:01.903Z,2.27
2018-09-01T19:59:05.657Z,2.30
2018-09-01T20:04:09.095Z,2.53
2018-09-01T20:09:12.295Z,2.37
2018-09-01T20:14:15.508Z,2.70
2018-09-01T20:19:19.363Z,2.52
2018-09-01T20:24:22.597Z,2.70
2018-09-01T20:29:25.827Z,2.90
2018-09-01T20:34:29.059Z,2.72
2018-09-01T20:39:32.568Z,2.43
2018-09-01T20:44:35.871Z,2.45
2018-09-01T20:49:39.336Z,2.60
2018-09-01T20:54:42.551Z,2.60
2018-09-01T20:59:45.739Z,3.37
2018-09-01T21:04:48.923Z,2.80
2018-09-01T21:09:52.099Z,2.62
2018-09-01T21:14:55.312Z,3.00
2018-09-01T21:19:58.835Z,2.60
2018-09-01T21:25:02.043Z,2.77
2018-09-01T21:30:07.240Z,3.25
2018-09-01T21:35:10.514Z,3.40
2018-09-01T21:40:13.996Z,3.47
2018-09-01T21:45:17.150Z,3.40
2018-09-01T21:50:20.859Z,3.30
2018-09-01T21:55:24.103Z,3.40
2018-09-01T22:00:27.323Z,3.40
2018-09-01T22:05:30.523Z,3.27
2018-09-01T22:10:33.759Z,3.12
2018-09-01T22:15:37.062Z,3.20
2018-09-01T22:20:40.305Z,3.40
2018-09-01T22:25:43.540Z,3.10
2018-09-01T22:30:46.768Z,3.50
2018-09-01T22:35:49.975Z,3.70
2018-09-01T22:40:53.687Z,3.00
2018-09-01T22:45:57.247Z,3.10
2018-09-01T22:51:00.469Z,3.30
2018-09-01T22:56:03.658Z,3.58
2018-09-01T23:01:06.843Z,3.40
2018-09-01T23:06:10.059Z,3.98
2018-09-01T23:11:13.251Z,4.05
2018-09-01T23:16:16.436Z,4.00
2018-09-01T23:21:19.606Z,4.37
2018-09-01T23:26:22.803Z,4.87
2018-09-01T23:31:26.035Z,4.83
2018-09-01T23:36:29.207Z,4.42
2018-09-01T23:41:32.373Z,4.50
2018-09-01T23:46:35.863Z,4.70
2018-09-01T23:51:39.029Z,5.55
2018-09-01T23:56:42.251Z,5.45
